Terminal Aerodrome Forecast
Issued by NWS

Home | Current Version | Previous Version | Text Only | Print | Product List | Glossary On
Versions: 1 2 3 4 5 6 7 8 9 10 11 12 13 14 15 16
000
FTAK31 PAJN 290500
TAFAKT
TAF
PAKT 290521Z 2906/3006 32006KT P6SM BKN060 BKN100
     FM291900 33010KT P6SM SCT060 BKN100
     FM300200 33006KT P6SM SCT060
      AMD LTD TO CLD VIS AND WIND 2906/2915=

USA.gov is the U.S. government's official web portal to all federal, state and local government web resources and services.